createdAt,value
2018-09-06T00:08:27.045Z,27.30
2018-09-06T00:13:55.155Z,23.50
2018-09-06T00:14:27.250Z,25.50
2018-09-06T00:15:27.287Z,26.60
2018-09-06T00:16:27.320Z,26.10
2018-09-06T00:17:27.357Z,26.00
2018-09-06T00:18:27.392Z,24.10
2018-09-06T00:19:27.425Z,26.40
2018-09-06T00:20:27.461Z,26.50
2018-09-06T00:21:27.496Z,27.00
2018-09-06T00:22:27.529Z,24.90
2018-09-06T00:23:27.567Z,23.00
2018-09-06T00:24:27.599Z,30.10
2018-09-06T00:25:27.634Z,27.70
2018-09-06T00:26:27.668Z,25.40
2018-09-06T00:27:27.703Z,28.10
2018-09-06T00:28:27.738Z,28.30
2018-09-06T00:29:27.774Z,27.00
2018-09-06T00:30:27.809Z,32.20
2018-09-06T00:31:27.844Z,27.70
2018-09-06T00:32:27.875Z,28.10
2018-09-06T00:33:27.910Z,30.60
2018-09-06T00:34:27.944Z,27.50
2018-09-06T00:35:27.981Z,27.20
2018-09-06T00:36:28.014Z,29.60
2018-09-06T00:37:28.049Z,26.50
2018-09-06T00:38:28.083Z,26.90
2018-09-06T00:39:28.118Z,26.00
2018-09-06T00:40:28.152Z,24.90
2018-09-06T00:41:28.186Z,27.10
2018-09-06T00:42:28.220Z,28.50
2018-09-06T00:43:28.254Z,26.70
2018-09-06T00:44:28.290Z,26.20
2018-09-06T00:45:28.325Z,30.30
2018-09-06T00:46:28.358Z,27.80
2018-09-06T00:47:28.393Z,27.90
2018-09-06T00:48:28.426Z,28.30
2018-09-06T00:49:28.461Z,23.70
2018-09-06T00:50:28.494Z,25.60
2018-09-06T00:51:28.529Z,24.30
2018-09-06T00:52:28.565Z,23.10
2018-09-06T00:53:28.598Z,30.70
2018-09-06T00:54:28.632Z,26.30
2018-09-06T00:55:28.666Z,25.40
2018-09-06T00:57:28.736Z,24.90
2018-09-06T00:58:28.770Z,30.50
2018-09-06T00:59:28.804Z,26.00
2018-09-06T01:00:28.838Z,24.70
2018-09-06T01:01:28.874Z,27.60
2018-09-06T01:02:28.907Z,29.70
2018-09-06T01:03:28.944Z,24.90
2018-09-06T01:04:28.977Z,25.20
2018-09-06T01:05:29.011Z,23.80
2018-09-06T01:06:29.044Z,25.20
2018-09-06T01:07:29.079Z,23.90
2018-09-06T01:08:29.112Z,26.70
2018-09-06T01:09:29.149Z,25.70
2018-09-06T01:10:29.183Z,30.10
2018-09-06T01:11:29.216Z,23.80
2018-09-06T01:12:29.251Z,25.40
2018-09-06T01:13:29.286Z,26.80
2018-09-06T01:14:29.320Z,25.40
2018-09-06T01:15:29.354Z,24.90
2018-09-06T01:16:29.389Z,27.10
2018-09-06T01:17:29.424Z,25.70
2018-09-06T01:18:29.457Z,22.00
2018-09-06T01:19:29.491Z,26.60
2018-09-06T01:20:29.527Z,29.10
2018-09-06T01:21:29.562Z,26.30
2018-09-06T01:22:29.595Z,27.10
2018-09-06T01:23:29.629Z,21.60
2018-09-06T01:24:29.665Z,23.50
2018-09-06T01:25:29.699Z,27.10
2018-09-06T01:26:29.732Z,26.70
2018-09-06T01:27:29.766Z,25.80
2018-09-06T01:28:29.802Z,25.90
2018-09-06T01:29:29.837Z,24.90
2018-09-06T01:30:29.871Z,28.20
2018-09-06T01:31:29.908Z,27.70
2018-09-06T01:32:29.938Z,26.90
2018-09-06T01:33:29.981Z,26.10
2018-09-06T01:34:30.011Z,23.70
2018-09-06T01:35:30.041Z,24.90
2018-09-06T01:36:30.076Z,25.70
2018-09-06T01:37:30.110Z,27.20
2018-09-06T01:38:30.182Z,22.80
2018-09-06T01:39:30.179Z,25.90
2018-09-06T01:40:30.218Z,22.90
2018-09-06T01:41:30.248Z,28.20
2018-09-06T01:42:30.281Z,25.40
2018-09-06T01:43:30.316Z,27.30
2018-09-06T01:44:30.350Z,27.30
2018-09-06T01:45:30.385Z,27.20
2018-09-06T01:46:30.418Z,25.00
2018-09-06T01:47:30.453Z,30.60
2018-09-06T01:48:30.487Z,25.60
2018-09-06T01:49:30.522Z,27.10
2018-09-06T01:50:30.556Z,27.10
2018-09-06T01:51:30.589Z,27.70
2018-09-06T01:52:30.625Z,27.70
2018-09-06T01:53:30.659Z,26.30
2018-09-06T01:54:30.692Z,27.00
2018-09-06T01:55:30.727Z,23.30
2018-09-06T01:56:30.762Z,26.60
2018-09-06T01:57:30.796Z,35.80
2018-09-06T01:58:30.830Z,28.30
2018-09-06T01:59:30.863Z,29.20
2018-09-06T02:00:30.898Z,28.30
2018-09-06T02:01:30.932Z,28.20
2018-09-06T02:02:30.966Z,27.30
2018-09-06T02:03:31.000Z,27.00
2018-09-06T02:04:31.036Z,27.30
2018-09-06T02:05:31.070Z,23.80
2018-09-06T02:06:31.104Z,23.30
2018-09-06T02:07:31.138Z,29.50
2018-09-06T02:08:31.171Z,23.70
2018-09-06T02:09:31.239Z,26.10
2018-09-06T02:10:31.239Z,28.50
2018-09-06T02:11:31.275Z,30.50
2018-09-06T02:12:31.309Z,30.20
2018-09-06T02:13:31.345Z,31.20
2018-09-06T02:14:31.378Z,26.80
2018-09-06T02:15:31.414Z,25.10
2018-09-06T02:16:31.448Z,26.20
2018-09-06T02:17:31.481Z,23.40
2018-09-06T02:18:31.514Z,27.10
2018-09-06T02:19:31.549Z,25.60
2018-09-06T02:20:31.594Z,26.50
2018-09-06T02:21:31.618Z,28.30
2018-09-06T02:22:31.651Z,31.40
2018-09-06T02:23:31.686Z,27.00
2018-09-06T02:24:31.785Z,24.50
2018-09-06T02:25:31.756Z,31.90
2018-09-06T02:26:31.787Z,29.50
2018-09-06T02:27:31.823Z,26.20
2018-09-06T02:28:31.858Z,23.70
2018-09-06T02:29:31.892Z,26.20
2018-09-06T02:30:31.925Z,26.50
2018-09-06T02:31:31.969Z,27.30
2018-09-06T02:32:31.995Z,21.70
2018-09-06T02:33:32.029Z,26.10
2018-09-06T02:34:32.061Z,24.50
2018-09-06T02:35:32.098Z,27.00
2018-09-06T02:36:32.131Z,25.20
2018-09-06T02:37:32.166Z,26.20
2018-09-06T02:38:32.200Z,26.30
2018-09-06T02:39:32.235Z,24.70
2018-09-06T02:40:32.269Z,24.60
2018-09-06T02:41:32.302Z,26.10
2018-09-06T02:42:32.337Z,20.00
2018-09-06T02:43:32.370Z,22.80
2018-09-06T02:44:32.406Z,21.10
2018-09-06T02:45:32.441Z,28.30
2018-09-06T02:46:32.473Z,23.90
2018-09-06T02:47:32.508Z,26.40
2018-09-06T02:48:32.540Z,27.50
2018-09-06T02:49:32.576Z,23.30
2018-09-06T02:50:32.608Z,25.90
2018-09-06T02:51:32.645Z,25.90
2018-09-06T02:52:32.677Z,24.60
2018-09-06T02:53:32.711Z,24.00
2018-09-06T02:54:32.746Z,23.80
2018-09-06T02:55:32.782Z,23.10
2018-09-06T02:56:32.815Z,23.60
2018-09-06T02:57:32.849Z,26.20
2018-09-06T02:58:32.882Z,23.50
2018-09-06T02:59:32.917Z,28.50
2018-09-06T03:00:32.951Z,23.50
2018-09-06T03:01:32.988Z,24.10
2018-09-06T03:02:33.019Z,26.60
2018-09-06T03:03:33.054Z,25.70
2018-09-06T03:04:33.088Z,26.70
2018-09-06T03:05:33.121Z,24.80
2018-09-06T03:06:33.156Z,29.60
2018-09-06T03:07:33.189Z,27.30
2018-09-06T03:08:33.225Z,26.90
2018-09-06T03:09:33.259Z,25.10
2018-09-06T03:10:33.291Z,25.10
2018-09-06T03:11:33.327Z,26.90
2018-09-06T03:12:33.361Z,25.70
2018-09-06T03:13:33.419Z,25.30
2018-09-06T03:14:33.428Z,27.30
2018-09-06T03:15:33.555Z,25.20
2018-09-06T03:16:33.497Z,27.60
2018-09-06T03:17:33.532Z,30.20
2018-09-06T03:18:33.567Z,24.60
2018-09-06T03:19:33.599Z,28.80
2018-09-06T03:20:33.635Z,29.80
2018-09-06T03:21:33.670Z,25.30
2018-09-06T03:22:33.701Z,23.70
2018-09-06T03:23:33.736Z,23.70
2018-09-06T03:24:33.771Z,24.00
2018-09-06T03:25:33.805Z,21.90
2018-09-06T03:26:33.840Z,27.30
2018-09-06T03:27:33.874Z,24.50
2018-09-06T03:28:33.907Z,26.90
2018-09-06T03:29:33.941Z,33.20
2018-09-06T03:30:33.976Z,24.10
2018-09-06T03:31:34.010Z,27.20
2018-09-06T03:32:34.048Z,24.00
2018-09-06T03:33:34.079Z,23.20
2018-09-06T03:34:34.114Z,26.80
2018-09-06T03:35:34.145Z,27.10
2018-09-06T03:36:34.182Z,22.20
2018-09-06T03:37:34.215Z,24.40
2018-09-06T03:38:34.249Z,30.70
2018-09-06T03:39:34.282Z,25.10
2018-09-06T03:40:34.316Z,31.80
2018-09-06T03:41:34.351Z,29.10
2018-09-06T03:42:34.386Z,26.90
2018-09-06T03:43:34.420Z,27.80
2018-09-06T03:44:34.455Z,27.10
2018-09-06T03:45:34.489Z,25.50
2018-09-06T03:46:34.522Z,27.00
2018-09-06T03:47:34.560Z,25.20
2018-09-06T03:48:34.589Z,25.20
2018-09-06T03:49:34.625Z,23.70
2018-09-06T03:50:34.661Z,25.90
2018-09-06T03:51:34.694Z,25.70
2018-09-06T03:52:34.727Z,30.60
2018-09-06T03:53:34.761Z,24.00
2018-09-06T03:54:34.795Z,25.60
2018-09-06T03:55:34.829Z,29.90
2018-09-06T03:56:34.864Z,24.10
2018-09-06T03:57:34.897Z,22.10
2018-09-06T03:58:34.930Z,23.90
2018-09-06T03:59:34.970Z,22.00
2018-09-06T04:00:34.999Z,24.90
2018-09-06T04:01:35.033Z,22.20
2018-09-06T04:02:35.071Z,24.90
2018-09-06T04:03:35.104Z,23.10
2018-09-06T04:04:35.136Z,22.90
2018-09-06T04:05:35.171Z,21.80
2018-09-06T04:06:35.206Z,25.60
2018-09-06T04:07:35.239Z,24.00
2018-09-06T04:08:35.274Z,24.80
2018-09-06T04:09:35.308Z,24.20
2018-09-06T04:10:35.341Z,29.80
2018-09-06T04:11:35.382Z,20.20
2018-09-06T04:12:35.410Z,26.60
2018-09-06T04:13:35.445Z,24.50
2018-09-06T04:14:35.484Z,23.70
2018-09-06T04:15:35.511Z,24.40
2018-09-06T04:16:35.546Z,25.00
2018-09-06T04:17:35.581Z,22.90
2018-09-06T04:18:35.676Z,23.80
2018-09-06T04:19:35.649Z,24.40
2018-09-06T04:20:35.684Z,26.60
2018-09-06T04:21:35.721Z,29.20
2018-09-06T04:22:35.749Z,31.00
2018-09-06T04:23:35.785Z,23.40
2018-09-06T04:24:35.820Z,27.10
2018-09-06T04:25:35.855Z,23.90
2018-09-06T04:26:35.887Z,22.80
2018-09-06T04:27:35.922Z,27.90
2018-09-06T04:28:35.958Z,25.90
2018-09-06T04:29:35.989Z,23.20
2018-09-06T04:30:36.026Z,29.40
2018-09-06T04:31:36.059Z,26.10
2018-09-06T04:32:36.093Z,31.30
2018-09-06T04:33:36.127Z,26.80
2018-09-06T04:34:36.161Z,26.20
2018-09-06T04:35:36.271Z,23.70
2018-09-06T04:36:36.229Z,27.90
2018-09-06T04:37:36.265Z,22.70
2018-09-06T04:38:36.295Z,26.40
2018-09-06T04:39:36.334Z,23.10
2018-09-06T04:40:36.365Z,30.60
2018-09-06T04:41:36.400Z,27.70
2018-09-06T04:42:36.438Z,33.50
2018-09-06T04:43:36.489Z,29.10
2018-09-06T04:44:36.502Z,25.10
2018-09-06T04:45:36.536Z,25.00
2018-09-06T04:46:36.568Z,23.60
2018-09-06T04:47:36.604Z,25.80
2018-09-06T04:48:36.637Z,26.20
2018-09-06T04:49:36.672Z,25.30
2018-09-06T04:50:36.705Z,26.00
2018-09-06T04:51:36.739Z,27.60
2018-09-06T04:52:36.777Z,27.30
2018-09-06T04:53:36.807Z,28.30
2018-09-06T04:54:36.841Z,28.90
2018-09-06T04:55:36.874Z,31.00
2018-09-06T04:56:36.910Z,26.00
2018-09-06T04:57:36.944Z,28.30
2018-09-06T04:58:37.056Z,28.20
2018-09-06T04:59:37.011Z,32.60
2018-09-06T05:00:37.046Z,25.70
2018-09-06T05:01:37.081Z,24.80
2018-09-06T05:02:37.113Z,27.30
2018-09-06T05:03:37.146Z,27.30
2018-09-06T05:04:37.183Z,24.00
2018-09-06T05:05:37.215Z,26.90
2018-09-06T05:06:37.248Z,26.50
2018-09-06T05:07:37.288Z,25.90
2018-09-06T05:08:37.316Z,25.00
2018-09-06T05:09:37.352Z,24.50
2018-09-06T05:10:37.385Z,25.20
2018-09-06T05:11:37.420Z,24.40
2018-09-06T05:12:37.455Z,25.20
2018-09-06T05:13:37.487Z,25.60
2018-09-06T05:14:37.521Z,28.10
2018-09-06T05:15:37.556Z,24.90
2018-09-06T05:16:37.590Z,24.20
2018-09-06T05:17:37.624Z,21.00
2018-09-06T05:18:37.657Z,20.50
2018-09-06T05:19:37.692Z,28.70
2018-09-06T05:20:37.726Z,26.20
2018-09-06T05:21:37.761Z,29.90
2018-09-06T05:22:37.793Z,23.30
2018-09-06T05:23:37.829Z,26.40
2018-09-06T05:24:37.861Z,23.40
2018-09-06T05:25:37.901Z,25.20
2018-09-06T05:26:37.929Z,28.50
2018-09-06T05:27:37.965Z,29.30
2018-09-06T05:28:37.998Z,27.00
2018-09-06T05:29:38.032Z,25.50
2018-09-06T05:30:38.102Z,26.10
2018-09-06T05:31:38.105Z,24.40
2018-09-06T05:32:38.134Z,22.80
2018-09-06T05:33:38.169Z,30.10
2018-09-06T05:34:38.202Z,25.40
2018-09-06T05:35:38.235Z,24.80
2018-09-06T05:36:38.426Z,23.30
2018-09-06T05:37:38.308Z,26.70
2018-09-06T05:38:38.341Z,24.10
2018-09-06T05:39:38.373Z,24.60
2018-09-06T05:40:38.412Z,21.90
2018-09-06T05:41:38.441Z,34.90
2018-09-06T05:42:38.475Z,23.30
2018-09-06T05:43:38.510Z,23.20
2018-09-06T05:44:38.544Z,24.30
2018-09-06T05:45:38.580Z,21.80
2018-09-06T05:46:38.611Z,29.20
2018-09-06T05:47:38.650Z,28.50
2018-09-06T05:48:38.686Z,32.60
2018-09-06T05:49:38.715Z,25.40
2018-09-06T05:50:38.748Z,27.50
2018-09-06T05:51:38.799Z,19.80
2018-09-06T05:52:38.818Z,23.60
2018-09-06T05:53:38.851Z,29.60
2018-09-06T05:54:38.885Z,26.70
2018-09-06T05:55:38.920Z,23.30
2018-09-06T05:56:38.954Z,23.40
2018-09-06T05:57:38.991Z,19.30
2018-09-06T05:58:39.022Z,21.40
2018-09-06T05:59:39.118Z,22.40
2018-09-06T06:00:39.091Z,20.80
2018-09-06T06:01:39.124Z,22.50
2018-09-06T06:02:39.160Z,21.60
2018-09-06T06:03:39.193Z,23.20
2018-09-06T06:04:39.227Z,22.70
2018-09-06T06:05:39.263Z,23.60
2018-09-06T06:06:39.295Z,20.80
2018-09-06T06:07:39.330Z,25.70
2018-09-06T06:08:39.364Z,28.80
2018-09-06T06:09:39.399Z,24.30
2018-09-06T06:10:39.433Z,21.50
2018-09-06T06:11:39.472Z,24.40
2018-09-06T06:12:39.501Z,24.60
2018-09-06T06:13:39.536Z,26.30
2018-09-06T06:14:39.570Z,22.60
2018-09-06T06:15:39.604Z,19.90
2018-09-06T06:16:39.639Z,20.00
2018-09-06T06:17:39.674Z,30.00
2018-09-06T06:18:39.706Z,22.50
2018-09-06T06:19:39.745Z,23.80
2018-09-06T06:20:39.777Z,21.50
2018-09-06T06:21:39.812Z,24.10
2018-09-06T06:22:39.845Z,24.30
2018-09-06T06:23:39.883Z,27.30
2018-09-06T06:24:39.916Z,22.00
2018-09-06T06:25:39.952Z,19.80
2018-09-06T06:26:39.985Z,23.10
2018-09-06T06:27:40.020Z,24.00
2018-09-06T06:29:32.642Z,23.10
2018-09-06T06:30:32.664Z,20.50
2018-09-06T06:31:32.701Z,25.10
2018-09-06T06:32:32.734Z,23.40
2018-09-06T06:33:32.771Z,26.10
2018-09-06T06:34:32.804Z,21.70
2018-09-06T06:35:32.840Z,23.10
2018-09-06T06:36:32.896Z,28.60
2018-09-06T06:37:32.910Z,22.70
2018-09-06T06:38:32.946Z,17.90
2018-09-06T06:39:32.986Z,23.20
2018-09-06T06:40:33.016Z,19.00
2018-09-06T06:41:33.050Z,18.40
2018-09-06T06:42:33.111Z,23.30
2018-09-06T06:43:33.124Z,18.10
2018-09-06T06:44:33.160Z,21.00
2018-09-06T06:45:33.422Z,19.70
2018-09-06T06:47:33.265Z,18.60
2018-09-06T06:50:33.574Z,19.40
2018-09-06T06:51:33.406Z,21.60
2018-09-06T06:53:33.477Z,19.20
2018-09-06T06:54:33.517Z,18.10
2018-09-06T06:55:33.555Z,26.50
2018-09-06T06:56:33.587Z,21.70
2018-09-06T06:57:33.620Z,21.70
2018-09-06T06:58:33.662Z,16.70
2018-09-06T06:59:33.694Z,18.40
2018-09-06T07:00:33.730Z,20.40
2018-09-06T07:01:33.765Z,21.10
2018-09-06T07:02:33.802Z,20.20
2018-09-06T07:03:33.840Z,16.70
2018-09-06T07:04:33.900Z,19.50
2018-09-06T07:05:33.911Z,19.60
2018-09-06T07:06:33.947Z,18.20
2018-09-06T07:07:33.983Z,21.80
2018-09-06T07:08:34.020Z,17.40
2018-09-06T07:09:34.056Z,18.80
2018-09-06T07:10:34.093Z,17.20
2018-09-06T07:11:34.130Z,17.30
2018-09-06T07:12:34.167Z,17.40
2018-09-06T07:13:34.203Z,15.40
2018-09-06T07:17:52.744Z,16.90
2018-09-06T07:18:52.579Z,16.20
2018-09-06T07:19:52.390Z,18.70
2018-09-06T07:20:52.427Z,16.30
2018-09-06T07:21:52.462Z,14.80
2018-09-06T07:22:52.499Z,17.30
2018-09-06T07:23:52.542Z,14.90
2018-09-06T07:24:52.571Z,17.40
2018-09-06T07:25:52.611Z,14.40
2018-09-06T07:26:52.647Z,16.00
2018-09-06T07:27:52.683Z,15.70
2018-09-06T07:28:52.720Z,15.70
2018-09-06T07:29:52.758Z,14.90
2018-09-06T07:30:52.802Z,19.90
2018-09-06T07:31:52.834Z,14.80
2018-09-06T07:32:52.870Z,20.00
2018-09-06T07:33:52.909Z,15.90
2018-09-06T07:34:52.945Z,16.10
2018-09-06T07:35:52.983Z,17.40
2018-09-06T07:36:53.021Z,14.20
2018-09-06T07:37:53.082Z,15.20
2018-09-06T07:38:53.528Z,15.20
2018-09-06T07:39:54.066Z,14.90
2018-09-06T07:40:54.308Z,16.10
2018-09-06T07:41:53.409Z,14.30
2018-09-06T07:42:53.245Z,15.40
2018-09-06T07:43:53.284Z,16.80
2018-09-06T07:44:53.321Z,14.80
2018-09-06T07:45:53.360Z,20.10
2018-09-06T07:46:53.418Z,15.40
2018-09-06T07:47:53.434Z,14.60
2018-09-06T07:48:53.473Z,14.60
2018-09-06T07:49:53.569Z,14.40
2018-09-06T07:50:53.549Z,15.60
2018-09-06T07:51:53.586Z,15.50
2018-09-06T07:52:53.625Z,14.90
2018-09-06T07:53:53.665Z,14.80
2018-09-06T07:54:53.702Z,14.00
2018-09-06T07:55:53.738Z,12.70
2018-09-06T07:56:53.778Z,13.40
2018-09-06T07:57:53.817Z,16.90
2018-09-06T07:58:53.855Z,13.40
2018-09-06T07:59:53.893Z,17.70
2018-09-06T08:00:53.934Z,14.20
2018-09-06T08:01:53.970Z,13.30
2018-09-06T08:02:54.009Z,13.10
2018-09-06T08:03:54.047Z,12.70
2018-09-06T08:04:54.084Z,12.80
2018-09-06T08:05:54.123Z,12.10
2018-09-06T08:06:54.163Z,13.40
2018-09-06T08:07:54.199Z,13.40
2018-09-06T08:08:54.238Z,15.00
2018-09-06T08:09:54.279Z,12.60
2018-09-06T08:10:54.316Z,14.00
2018-09-06T08:11:54.374Z,12.80
2018-09-06T08:12:54.393Z,13.10
2018-09-06T08:13:54.434Z,13.70
2018-09-06T08:14:54.470Z,13.00
2018-09-06T08:15:54.509Z,12.90
2018-09-06T08:16:54.548Z,15.60
2018-09-06T08:17:54.591Z,12.40
2018-09-06T08:18:54.659Z,11.10
2018-09-06T08:19:54.664Z,13.50
2018-09-06T08:20:54.703Z,12.10
2018-09-06T08:21:54.744Z,12.50
2018-09-06T08:22:54.783Z,12.50
2018-09-06T08:23:54.820Z,11.70
2018-09-06T08:24:54.861Z,14.50
2018-09-06T08:25:54.900Z,11.80
2018-09-06T08:26:54.939Z,12.20
2018-09-06T08:27:54.976Z,11.60
2018-09-06T08:28:55.018Z,11.40
2018-09-06T08:29:55.057Z,15.50
2018-09-06T08:30:55.231Z,14.10
2018-09-06T08:31:55.132Z,11.80
2018-09-06T08:32:55.173Z,11.50
2018-09-06T08:33:55.218Z,10.90
2018-09-06T08:34:55.251Z,13.50
2018-09-06T08:35:55.291Z,14.30
2018-09-06T08:36:55.340Z,10.00
2018-09-06T08:37:55.371Z,10.90
2018-09-06T08:38:55.412Z,12.10
2018-09-06T08:39:55.449Z,10.80
2018-09-06T08:40:55.492Z,10.10
2018-09-06T08:41:55.532Z,10.90
2018-09-06T08:42:55.568Z,10.90
2018-09-06T08:43:55.608Z,11.90
2018-09-06T08:44:55.649Z,11.10
2018-09-06T08:45:55.689Z,10.10
2018-09-06T08:46:55.729Z,9.70
2018-09-06T08:47:55.768Z,10.10
2018-09-06T08:48:55.809Z,9.70
2018-09-06T08:49:55.850Z,9.20
2018-09-06T08:50:55.887Z,8.90
2018-09-06T08:51:55.959Z,9.90
2018-09-06T08:52:55.969Z,9.80
2018-09-06T08:53:56.015Z,8.90
2018-09-06T08:54:56.050Z,14.10
2018-09-06T08:55:56.090Z,11.70
2018-09-06T08:56:56.130Z,9.40
2018-09-06T08:57:56.171Z,8.90
2018-09-06T08:58:56.210Z,9.00
2018-09-06T08:59:56.252Z,9.40
2018-09-06T09:00:56.291Z,9.90
2018-09-06T09:01:56.342Z,8.90
2018-09-06T09:02:56.606Z,9.70
2018-09-06T09:03:56.415Z,9.90
2018-09-06T09:04:56.456Z,10.20
2018-09-06T09:05:56.518Z,9.30
2018-09-06T09:06:56.536Z,9.40
2018-09-06T09:07:56.579Z,12.00
2018-09-06T09:08:56.618Z,9.70
2018-09-06T09:09:56.659Z,9.90
2018-09-06T09:10:56.701Z,10.40
2018-09-06T09:11:56.741Z,9.90
2018-09-06T09:12:56.826Z,10.30
2018-09-06T09:13:56.826Z,9.70
2018-09-06T09:14:56.867Z,10.80
2018-09-06T09:15:56.910Z,10.00
2018-09-06T09:16:56.950Z,10.80
2018-09-06T09:17:56.993Z,10.80
2018-09-06T09:18:57.056Z,9.10
2018-09-06T09:19:57.078Z,9.60
2018-09-06T09:20:57.122Z,9.70
2018-09-06T09:21:57.185Z,11.40
2018-09-06T09:22:57.208Z,9.70
2018-09-06T09:23:57.454Z,8.70
2018-09-06T09:24:57.297Z,8.20
2018-09-06T09:25:57.343Z,8.80
2018-09-06T09:26:57.386Z,8.70
2018-09-06T09:30:57.568Z,8.20
2018-09-06T09:31:57.613Z,8.60
2018-09-06T09:32:57.659Z,8.30
2018-09-06T09:33:57.705Z,8.40
2018-09-06T09:34:57.752Z,7.90
2018-09-06T09:35:57.906Z,8.30
2018-09-06T09:36:57.865Z,10.50
2018-09-06T09:37:57.890Z,7.10
2018-09-06T09:38:57.962Z,8.00
2018-09-06T09:39:57.984Z,8.20
2018-09-06T09:40:58.033Z,8.70
2018-09-06T09:41:58.080Z,8.00
2018-09-06T09:42:58.128Z,7.50
2018-09-06T09:43:58.176Z,7.60
2018-09-06T09:44:58.223Z,7.50
2018-09-06T09:47:56.776Z,7.20
2018-09-06T09:48:56.823Z,6.80
2018-09-06T09:49:56.872Z,6.60
2018-09-06T09:50:56.920Z,7.10
2018-09-06T09:51:56.973Z,6.00
2018-09-06T09:52:57.017Z,8.60
2018-09-06T09:53:57.068Z,6.80
2018-09-06T09:54:57.116Z,7.60
2018-09-06T09:55:57.167Z,6.80
2018-09-06T09:56:57.280Z,9.50
2018-09-06T09:57:57.264Z,7.00
2018-09-06T09:58:57.314Z,6.80
2018-09-06T09:59:57.691Z,9.30
2018-09-06T10:00:57.436Z,7.20
2018-09-06T10:01:57.687Z,6.40
2018-09-06T10:02:57.538Z,7.10
2018-09-06T10:03:57.788Z,6.90
2018-09-06T10:04:57.638Z,5.90
2018-09-06T10:05:57.662Z,6.40
2018-09-06T10:06:57.709Z,6.30
2018-09-06T10:07:57.764Z,6.30
2018-09-06T10:08:57.808Z,6.70
2018-09-06T10:09:57.856Z,6.70
2018-09-06T10:10:57.907Z,6.20
2018-09-06T10:11:57.955Z,8.40
2018-09-06T10:13:00.625Z,6.00
2018-09-06T10:13:58.055Z,6.00
2018-09-06T10:14:58.103Z,6.40
2018-09-06T10:15:58.152Z,6.10
2018-09-06T10:16:58.201Z,8.50
2018-09-06T10:17:58.255Z,5.20
2018-09-06T10:18:58.303Z,5.90
2018-09-06T10:19:58.348Z,5.40
2018-09-06T10:20:58.400Z,5.50
2018-09-06T10:21:58.449Z,6.20
2018-09-06T10:22:58.503Z,5.10
2018-09-06T10:23:58.549Z,5.60
2018-09-06T10:24:58.600Z,5.30
2018-09-06T10:25:58.648Z,5.00
2018-09-06T10:26:58.698Z,5.80
2018-09-06T10:27:58.748Z,4.70
2018-09-06T10:28:58.800Z,5.80
2018-09-06T10:29:58.852Z,4.90
2018-09-06T10:30:58.900Z,4.80
2018-09-06T10:31:58.950Z,4.70
2018-09-06T10:32:59.002Z,5.20
2018-09-06T10:33:59.052Z,5.90
2018-09-06T10:34:59.102Z,5.40
2018-09-06T10:35:59.153Z,5.60
2018-09-06T10:36:59.204Z,5.50
2018-09-06T10:37:59.282Z,5.40
2018-09-06T10:38:59.305Z,5.10
2018-09-06T10:39:59.369Z,4.90
2018-09-06T10:40:59.408Z,7.20
2018-09-06T10:41:59.456Z,5.00
2018-09-06T10:42:59.509Z,4.70
2018-09-06T13:01:04.666Z,5.80
2018-09-06T13:02:04.708Z,4.50
2018-09-06T13:07:14.016Z,5.00
2018-09-06T13:08:14.104Z,4.70
2018-09-06T13:09:14.103Z,6.60
2018-09-06T13:10:14.146Z,5.60
2018-09-06T13:11:14.191Z,5.20
2018-09-06T13:12:14.235Z,4.90
2018-09-06T13:13:14.279Z,7.00
2018-09-06T13:14:14.323Z,10.10
2018-09-06T13:15:14.367Z,5.20
2018-09-06T13:16:14.413Z,4.90
2018-09-06T13:17:14.456Z,5.30
2018-09-06T13:18:14.513Z,5.30
2018-09-06T13:19:14.543Z,4.80
2018-09-06T13:20:14.589Z,4.70
2018-09-06T13:21:14.632Z,6.70
2018-09-06T13:22:14.701Z,6.60
2018-09-06T13:23:14.719Z,5.50
2018-09-06T13:24:14.763Z,4.80
2018-09-06T13:25:14.807Z,5.30
2018-09-06T13:26:14.849Z,5.20
2018-09-06T13:27:14.948Z,5.30
2018-09-06T13:28:14.936Z,10.40
2018-09-06T13:29:14.982Z,5.10
2018-09-06T13:30:15.024Z,5.60
2018-09-06T13:31:15.067Z,5.10
2018-09-06T13:32:15.110Z,4.60
2018-09-06T13:33:15.155Z,5.40
2018-09-06T13:34:15.197Z,5.50
2018-09-06T13:35:15.240Z,4.80
2018-09-06T13:36:15.284Z,5.30
2018-09-06T13:37:15.328Z,6.10
2018-09-06T13:38:15.369Z,4.80
2018-09-06T13:39:15.413Z,5.50
2018-09-06T13:40:15.457Z,7.60
2018-09-06T13:41:15.500Z,4.60
2018-09-06T13:42:15.544Z,5.10
2018-09-06T13:43:15.613Z,6.20
2018-09-06T13:44:15.633Z,4.30
2018-09-06T13:45:15.677Z,5.20
2018-09-06T13:46:15.720Z,4.90
2018-09-06T13:47:15.766Z,8.30
2018-09-06T13:48:15.811Z,4.90
2018-09-06T13:49:15.856Z,4.80
2018-09-06T13:51:15.945Z,6.80
2018-09-06T13:52:16.049Z,4.80
2018-09-06T13:53:16.036Z,4.50
2018-09-06T13:54:16.084Z,5.30
2018-09-06T13:55:16.125Z,6.40
2018-09-06T13:56:16.171Z,5.00
2018-09-06T13:57:16.217Z,8.20
2018-09-06T13:58:16.464Z,4.00
2018-09-06T13:59:16.308Z,10.40
2018-09-06T14:00:16.353Z,4.70
2018-09-06T14:01:16.402Z,4.20
2018-09-06T14:02:16.450Z,5.70
2018-09-06T14:03:16.495Z,3.80
2018-09-06T14:04:16.540Z,4.50
2018-09-06T14:05:16.588Z,4.50
2018-09-06T14:06:16.634Z,4.30
2018-09-06T14:07:16.683Z,4.40
2018-09-06T14:08:16.729Z,4.20
2018-09-06T14:09:16.776Z,4.60
2018-09-06T14:10:16.821Z,4.20
2018-09-06T14:11:16.867Z,4.20
2018-09-06T14:12:16.913Z,5.10
2018-09-06T14:13:16.958Z,4.80
2018-09-06T14:14:17.005Z,6.40
2018-09-06T14:15:17.050Z,4.70
2018-09-06T14:16:17.099Z,5.30
2018-09-06T14:17:17.150Z,4.80
2018-09-06T14:18:17.190Z,4.50
2018-09-06T14:19:17.240Z,8.80
2018-09-06T14:20:17.283Z,7.00
2018-09-06T14:21:17.535Z,4.60
2018-09-06T14:22:17.396Z,10.30
2018-09-06T14:23:17.422Z,7.50
2018-09-06T14:24:17.565Z,4.50
2018-09-06T14:25:17.840Z,5.00
2018-09-06T14:26:17.555Z,5.10
2018-09-06T14:27:17.600Z,5.00
2018-09-06T14:28:17.711Z,4.90
2018-09-06T14:29:17.690Z,7.30
2018-09-06T14:30:17.734Z,5.50
2018-09-06T14:31:17.780Z,8.10
2018-09-06T14:32:17.824Z,5.60
2018-09-06T14:33:17.867Z,11.20
2018-09-06T14:34:17.909Z,11.80
2018-09-06T14:35:17.953Z,9.80
2018-09-06T14:36:18.299Z,15.20
2018-09-06T14:37:18.040Z,9.50
2018-09-06T14:38:18.150Z,9.20
2018-09-06T14:39:18.123Z,9.70
2018-09-06T14:40:18.166Z,9.70
2018-09-06T14:41:18.207Z,10.50
2018-09-06T14:42:18.250Z,9.70
2018-09-06T14:43:18.333Z,15.20
2018-09-06T14:44:18.332Z,8.60
2018-09-06T14:45:18.373Z,9.60
2018-09-06T14:46:18.413Z,9.20
2018-09-06T14:47:18.454Z,9.30
2018-09-06T14:48:18.495Z,10.30
2018-09-06T14:49:18.536Z,8.60
2018-09-06T14:50:18.579Z,9.90
2018-09-06T14:51:18.615Z,8.60
2018-09-06T14:52:18.656Z,11.10
2018-09-06T14:53:18.697Z,24.30
2018-09-06T14:54:18.736Z,8.30
2018-09-06T14:55:18.776Z,8.10
2018-09-06T14:57:11.396Z,7.70
2018-09-06T14:58:11.438Z,11.90
2018-09-06T14:59:11.803Z,7.90
2018-09-06T15:00:11.537Z,8.00
2018-09-06T15:01:11.554Z,8.60
2018-09-06T15:02:11.595Z,6.60
2018-09-06T15:03:11.640Z,7.10
2018-09-06T15:04:11.672Z,7.40
2018-09-06T15:05:11.710Z,8.10
2018-09-06T15:06:11.750Z,7.10
2018-09-06T15:07:11.790Z,7.90
2018-09-06T15:08:11.831Z,8.10
2018-09-06T15:09:11.868Z,9.00
2018-09-06T15:10:11.907Z,6.90
2018-09-06T15:11:11.946Z,7.20
2018-09-06T15:12:11.987Z,11.90
2018-09-06T15:13:12.024Z,10.00
2018-09-06T15:14:12.065Z,8.80
2018-09-06T15:15:12.103Z,8.00
2018-09-06T15:16:12.143Z,12.10
2018-09-06T15:17:12.180Z,11.60
2018-09-06T15:18:12.220Z,8.80
2018-09-06T15:19:12.280Z,7.50
2018-09-06T15:20:12.340Z,7.40
2018-09-06T15:21:12.336Z,7.60
2018-09-06T15:22:12.377Z,10.60
2018-09-06T15:23:12.414Z,8.20
2018-09-06T15:24:12.453Z,8.30
2018-09-06T15:25:12.492Z,14.30
2018-09-06T15:26:12.531Z,7.60
2018-09-06T15:27:12.570Z,8.40
2018-09-06T15:28:12.609Z,8.50
2018-09-06T15:29:12.647Z,8.80
2018-09-06T15:30:12.686Z,8.70
2018-09-06T15:31:12.728Z,8.10
2018-09-06T15:32:12.764Z,8.50
2018-09-06T15:33:12.801Z,7.70
2018-09-06T15:34:12.841Z,7.70
2018-09-06T15:35:12.881Z,8.60
2018-09-06T15:36:12.919Z,8.50
2018-09-06T15:37:12.957Z,9.60
2018-09-06T15:38:12.996Z,8.60
2018-09-06T15:39:13.035Z,8.70
2018-09-06T15:40:13.073Z,9.20
2018-09-06T15:41:13.112Z,11.00
2018-09-06T15:42:13.150Z,8.60
2018-09-06T15:43:13.190Z,8.80
2018-09-06T15:44:13.227Z,8.30
2018-09-06T15:45:13.265Z,8.90
2018-09-06T15:46:13.304Z,8.10
2018-09-06T15:47:13.343Z,8.60
2018-09-06T15:48:13.384Z,9.10
2018-09-06T15:49:13.419Z,9.40
2018-09-06T15:50:13.459Z,9.50